Contact Us:
Email: info@sawbill.com
Phone: (218)663-7150
Fax: (218)663-7980
Mail: 4620 Sawbill Trail
Box 2129
Tofte, MN 55615


Powered by
Movable Type 3.15
 
Sawbill Weather History Archives: June 2015
Current Sawbill Weather History | « May 2015 | July 2015 »


Date

High
Temperature

Low
Temperature

Barometric
Pressure

Relative
Humidity 7AM

9 AM
Temperature

Moisture

Snow

6/30/15 66 42 30.04 75% 43 0
6/29/15 68 50 30.02 71% 50 .22"
6/28/15 71 56 29.92 87% 57 Trace
6/27/15 76 52 29.96 80% 61 .02"
6/26/15 75 50 30.10 76% 52 0
6/25/15 74 49 30.12 98% 50 .42"
6/24/15 70 56 30.10 90% 56 .28"
6/23/15 73 49 30.10 98% 57 .24"
6/22/15 64 52 30.04 90% 59 .68"
6/21/15 71 51 29.90 84% 52 0
6/20/15 58 54 29.98 98% 56 1.19"
6/19/15 67 51 29.92 87% 54 .04"
6/18/15 65 42 30.12 66% 51 0
6/17/15 69 50 30.10 58% 53 0
6/16/15 67 47 30.10 68% 50 0
6/15/15 70 46 30.18 68% 47 0
6/14/15 76 53 30.02 82% 56 Trace
6/13/15 72 50 30.00 88% 53 0
6/12/15 74 47 30.06 71% 49 0
6/11/15 73 46 29.97 72% 48 0
6/10/15 67 47 30.02 76% 48 0
6/9/15 77 53 29.84 73% 56 .04"
6/8/15 67 53 29.88 92% 53 .25"
6/7/15 66 55 29.82 98% 57 Trace
6/6/15 68 51 29.78 98% 55 .84"
6/5/15 66 37 30.22 75% 39 0
6/4/15 60 46 30.22 93% 49 .19"
6/3/15 67 54 30.04 98% 57 .96"
6/2/15 65 51 30.00 98% 54 .78"
6/1/15 63 36 30.12 45% 53 0
 


Home I Trip Planning I Rentals and Outfitting I Reservations I Campgrounds I Sawbill Store I Sawbill News I Contact

© 1997 - 2017, Sawbill Canoe Outfitters, Inc. I Privacy Policy